Time;durP1;ratioP1;P1;durP2;ratioP2;P2;SDS_P1;SDS_P2;PMS_P1;PMS_P2;Temp;Humidity;BMP_temperature;BMP_pressure;BME280_temperature;BME280_humidity;BME280_pressure;Samples;Min_cycle;Max_cycle;Signal;HPM_P1;HPM_P2
2021/03/29 00:00:28;;;;;;;;;;;9.00;81.40;;;;;;5091132;28;19926;-78
2021/03/29 00:02:54;;;;;;;;;;;9.00;80.90;;;;;;5089618;28;19951;-78
2021/03/29 00:05:20;;;;;;;;;;;9.00;81.20;;;;;;5093382;28;19940;-78
2021/03/29 00:07:48;;;;;;;;;;;8.90;82.10;;;;;;5106657;27;20881;-78
2021/03/29 00:10:14;;;;;;;;;;;8.90;82.30;;;;;;5094171;28;19999;-78
2021/03/29 00:12:42;;;;;;;;;;;8.80;81.20;;;;;;5074838;28;19920;-78
2021/03/29 00:15:09;;;;;;;;;;;8.80;81.60;;;;;;5082944;28;20369;-78
2021/03/29 00:17:38;;;;;;;;;;;8.80;81.80;;;;;;5091916;27;20061;-78
2021/03/29 00:20:14;;;;;;;;;;;8.80;81.00;;;;;;5090480;27;19920;-78
2021/03/29 00:22:39;;;;;;;;;;;8.80;80.90;;;;;;5068502;28;19912;-78
2021/03/29 00:25:06;;;;;;;;;;;8.80;81.00;;;;;;5094638;28;19935;-78
2021/03/29 00:27:31;;;;;;;;;;;8.80;81.50;;;;;;5085523;28;19989;-78
2021/03/29 00:29:57;;;;;;;;;;;8.70;81.80;;;;;;5065558;28;20349;-78
2021/03/29 00:32:22;;;;;;;;;;;8.80;80.90;;;;;;5074858;28;20071;-78
2021/03/29 00:34:48;;;;;;;;;;;8.80;81.10;;;;;;5074749;28;19916;-78
2021/03/29 00:37:14;;;;;;;;;;;8.80;80.90;;;;;;5073932;28;20007;-78
2021/03/29 00:39:39;;;;;;;;;;;8.80;80.80;;;;;;5073522;28;19970;-78
2021/03/29 00:42:05;;;;;;;;;;;8.80;81.10;;;;;;5064644;28;19919;-78
2021/03/29 00:44:31;;;;;;;;;;;8.80;80.00;;;;;;5075200;28;19928;-78
2021/03/29 00:46:56;;;;;;;;;;;8.80;80.30;;;;;;5059928;28;19920;-78
2021/03/29 00:49:22;;;;;;;;;;;8.80;80.60;;;;;;5072170;28;20419;-78
2021/03/29 00:51:47;;;;;;;;;;;8.80;81.00;;;;;;5077211;28;20288;-78
2021/03/29 00:54:13;;;;;;;;;;;8.70;81.00;;;;;;5089413;28;19927;-78
2021/03/29 00:56:38;;;;;;;;;;;8.70;80.60;;;;;;5072763;28;19920;-78
2021/03/29 00:59:04;;;;;;;;;;;8.70;81.20;;;;;;5094039;28;20348;-78
2021/03/29 01:01:30;;;;;;;;;;;8.70;81.20;;;;;;5074062;28;20007;-78
2021/03/29 01:04:01;;;;;;;;;;;8.60;80.60;;;;;;5077929;28;19948;-78
2021/03/29 01:06:31;;;;;;;;;;;8.60;81.80;;;;;;5069886;28;19920;-78
2021/03/29 01:08:57;;;;;;;;;;;8.60;81.60;;;;;;5074420;28;19932;-78
2021/03/29 01:11:24;;;;;;;;;;;8.60;81.00;;;;;;5077147;28;20380;-78
2021/03/29 01:13:59;;;;;;;;;;;8.60;81.30;;;;;;5093321;28;19912;-78
2021/03/29 01:16:25;;;;;;;;;;;8.60;81.10;;;;;;5087880;28;20493;-78
2021/03/29 01:18:52;;;;;;;;;;;8.60;81.20;;;;;;5077161;28;19927;-78
2021/03/29 01:21:27;;;;;;;;;;;8.60;81.50;;;;;;5074142;28;20008;-78
2021/03/29 01:23:52;;;;;;;;;;;8.50;80.90;;;;;;5075203;28;19923;-78
2021/03/29 01:26:33;;;;;;;;;;;8.50;81.90;;;;;;5080966;28;19923;-78
2021/03/29 01:28:59;;;;;;;;;;;8.50;81.00;;;;;;5089536;28;19939;-78
2021/03/29 01:31:25;;;;;;;;;;;8.50;81.80;;;;;;5092738;28;20251;-78
2021/03/29 01:33:53;;;;;;;;;;;8.50;81.40;;;;;;5093487;27;19919;-78
2021/03/29 01:36:18;;;;;;;;;;;8.50;81.70;;;;;;5077894;28;19919;-78
2021/03/29 01:38:44;;;;;;;;;;;8.50;81.60;;;;;;5081497;28;19926;-78
2021/03/29 01:41:09;;;;;;;;;;;8.40;80.90;;;;;;5077311;28;20011;-78
2021/03/29 01:43:37;;;;;;;;;;;8.30;82.30;;;;;;5069817;28;19948;-78
2021/03/29 01:46:03;;;;;;;;;;;8.30;82.10;;;;;;5082432;28;19948;-78
2021/03/29 01:48:28;;;;;;;;;;;8.30;82.20;;;;;;5095683;28;20000;-78
2021/03/29 01:50:54;;;;;;;;;;;8.20;82.10;;;;;;5096984;28;19939;-78
2021/03/29 01:53:21;;;;;;;;;;;8.20;83.20;;;;;;5115460;27;19935;-78
2021/03/29 01:55:47;;;;;;;;;;;8.10;83.40;;;;;;5089246;28;19985;-78
2021/03/29 01:58:12;;;;;;;;;;;8.10;83.50;;;;;;5094865;28;19991;-78
2021/03/29 02:00:44;;;;;;;;;;;8.10;82.90;;;;;;5078144;28;20007;-78
2021/03/29 02:03:09;;;;;;;;;;;8.00;83.40;;;;;;5077135;28;20573;-78
2021/03/29 02:05:35;;;;;;;;;;;8.00;83.00;;;;;;5078237;28;19924;-78
2021/03/29 02:08:00;;;;;;;;;;;8.00;83.70;;;;;;5077989;28;20054;-78
2021/03/29 02:10:29;;;;;;;;;;;7.90;84.30;;;;;;5106779;27;19912;-78
2021/03/29 02:12:54;;;;;;;;;;;7.80;84.60;;;;;;5094526;28;20003;-78
2021/03/29 02:15:24;;;;;;;;;;;7.80;84.20;;;;;;5096624;28;20412;-78
2021/03/29 02:17:51;;;;;;;;;;;7.80;84.10;;;;;;5084289;28;19943;-78
2021/03/29 02:20:17;;;;;;;;;;;7.80;85.30;;;;;;5120252;27;20398;-78
2021/03/29 02:22:52;;;;;;;;;;;7.70;85.80;;;;;;5095460;28;19920;-78
2021/03/29 02:25:18;;;;;;;;;;;7.70;86.70;;;;;;5076219;28;19916;-78
2021/03/29 02:27:47;;;;;;;;;;;7.60;87.30;;;;;;5077807;28;19969;-78
2021/03/29 02:30:16;;;;;;;;;;;7.60;86.60;;;;;;5078237;28;19963;-78
2021/03/29 02:32:42;;;;;;;;;;;7.60;87.20;;;;;;5086124;28;19912;-78
2021/03/29 02:35:08;;;;;;;;;;;7.60;86.60;;;;;;5094951;28;19916;-78
2021/03/29 02:37:34;;;;;;;;;;;7.50;86.90;;;;;;5080323;28;19920;-78
2021/03/29 02:39:59;;;;;;;;;;;7.60;86.90;;;;;;5089560;28;19916;-78
2021/03/29 02:42:25;;;;;;;;;;;7.50;87.70;;;;;;5094062;28;20356;-78
2021/03/29 02:44:50;;;;;;;;;;;7.50;88.60;;;;;;5076855;28;20031;-78
2021/03/29 02:47:16;;;;;;;;;;;7.50;90.10;;;;;;5104414;27;19915;-78
2021/03/29 02:49:44;;;;;;;;;;;7.50;90.30;;;;;;5088910;28;19927;-78
2021/03/29 02:52:09;;;;;;;;;;;7.50;90.50;;;;;;5095166;28;20257;-78
2021/03/29 02:54:35;;;;;;;;;;;7.50;90.60;;;;;;5092853;28;19924;-78
2021/03/29 02:57:03;;;;;;;;;;;7.50;89.70;;;;;;5094397;28;20527;-78
2021/03/29 02:59:30;;;;;;;;;;;7.50;89.60;;;;;;5085491;28;19920;-78
2021/03/29 03:01:58;;;;;;;;;;;7.50;90.80;;;;;;5079681;28;19920;-78
2021/03/29 03:04:24;;;;;;;;;;;7.50;91.00;;;;;;5067380;28;20709;-78
2021/03/29 03:06:49;;;;;;;;;;;7.60;91.10;;;;;;5076119;28;19928;-77
2021/03/29 03:09:15;;;;;;;;;;;7.60;91.50;;;;;;5077921;28;19920;-78
2021/03/29 03:11:47;;;;;;;;;;;7.50;91.90;;;;;;5092667;27;20064;-79
2021/03/29 03:14:17;;;;;;;;;;;7.60;91.90;;;;;;5076712;28;19916;-78
2021/03/29 03:16:42;;;;;;;;;;;7.60;91.40;;;;;;5087884;28;19916;-79
2021/03/29 03:19:08;;;;;;;;;;;7.60;92.60;;;;;;5075749;28;19928;-78
2021/03/29 03:21:34;;;;;;;;;;;7.70;91.90;;;;;;5075812;28;19928;-78
2021/03/29 03:24:00;;;;;;;;;;;7.70;91.70;;;;;;5076302;28;19920;-79
2021/03/29 03:26:28;;;;;;;;;;;7.70;92.50;;;;;;5078166;28;19931;-79
2021/03/29 03:28:54;;;;;;;;;;;7.70;91.90;;;;;;5075728;28;20023;-78
2021/03/29 03:31:22;;;;;;;;;;;7.70;91.90;;;;;;5075945;28;19924;-79
2021/03/29 03:33:47;;;;;;;;;;;7.70;92.30;;;;;;5075557;28;20250;-79
2021/03/29 03:36:16;;;;;;;;;;;7.70;92.70;;;;;;5075329;28;19927;-79
2021/03/29 03:38:42;;;;;;;;;;;7.70;92.30;;;;;;5076041;28;20019;-78
2021/03/29 03:41:12;;;;;;;;;;;7.70;92.20;;;;;;5075610;28;19931;-78
2021/03/29 03:43:45;;;;;;;;;;;7.70;93.30;;;;;;5088804;28;19960;-78
2021/03/29 03:46:11;;;;;;;;;;;7.70;92.40;;;;;;5097662;28;19969;-79
2021/03/29 03:48:37;;;;;;;;;;;7.80;93.60;;;;;;5081582;28;19931;-78
2021/03/29 03:51:03;;;;;;;;;;;7.80;94.30;;;;;;5089992;28;19920;-78
2021/03/29 03:53:29;;;;;;;;;;;7.80;92.50;;;;;;5096234;28;19912;-79
2021/03/29 03:55:56;;;;;;;;;;;7.90;92.60;;;;;;5075035;28;19908;-78
2021/03/29 03:58:22;;;;;;;;;;;7.90;92.70;;;;;;5093896;28;19921;-78
2021/03/29 04:00:48;;;;;;;;;;;7.90;93.70;;;;;;5092899;28;19969;-78
2021/03/29 04:03:16;;;;;;;;;;;7.90;92.90;;;;;;5083643;28;19916;-78
2021/03/29 04:05:41;;;;;;;;;;;7.90;93.50;;;;;;5081521;28;19912;-79
2021/03/29 04:08:07;;;;;;;;;;;7.90;93.70;;;;;;5087040;28;19924;-79
2021/03/29 04:13:11;;;;;;;;;;;8.00;91.30;;;;;;5075360;28;20632;-79
2021/03/29 04:15:37;;;;;;;;;;;8.00;92.10;;;;;;5074777;28;19931;-78
2021/03/29 04:18:03;;;;;;;;;;;8.00;91.40;;;;;;5096630;28;20246;-79
2021/03/29 04:20:28;;;;;;;;;;;8.00;89.70;;;;;;5088732;28;19917;-79
2021/03/29 04:22:54;;;;;;;;;;;8.00;91.00;;;;;;5076344;28;19920;-79
2021/03/29 04:25:19;;;;;;;;;;;8.00;90.30;;;;;;5077010;28;19923;-79
2021/03/29 04:27:45;;;;;;;;;;;8.00;90.80;;;;;;5079530;28;19919;-78
2021/03/29 04:30:11;;;;;;;;;;;8.00;90.60;;;;;;5074488;28;20006;-78
2021/03/29 04:32:39;;;;;;;;;;;8.00;89.70;;;;;;5075406;28;20050;-78
2021/03/29 04:35:05;;;;;;;;;;;8.00;90.20;;;;;;5077125;28;20038;-79
2021/03/29 04:37:33;;;;;;;;;;;8.10;89.60;;;;;;5090688;28;19945;-78
2021/03/29 04:39:58;;;;;;;;;;;8.00;90.50;;;;;;5093019;28;19970;-79
2021/03/29 04:42:24;;;;;;;;;;;8.00;90.20;;;;;;5091385;28;20472;-79
2021/03/29 04:44:50;;;;;;;;;;;8.00;89.90;;;;;;5082159;28;19927;-78
2021/03/29 04:47:15;;;;;;;;;;;8.00;90.30;;;;;;5074432;28;19919;-79
2021/03/29 04:49:41;;;;;;;;;;;8.00;89.20;;;;;;5085487;28;19920;-79
2021/03/29 04:52:11;;;;;;;;;;;8.00;89.60;;;;;;5074194;28;19926;-78
2021/03/29 04:54:39;;;;;;;;;;;8.00;90.10;;;;;;5074965;28;20276;-79
2021/03/29 04:57:07;;;;;;;;;;;8.00;89.90;;;;;;5074509;28;19938;-79
2021/03/29 04:59:32;;;;;;;;;;;7.90;90.20;;;;;;5073125;28;19917;-78
2021/03/29 05:01:58;;;;;;;;;;;7.90;90.20;;;;;;5074663;28;20448;-78
2021/03/29 05:04:26;;;;;;;;;;;7.90;89.80;;;;;;5076962;28;19916;-78
2021/03/29 05:06:51;;;;;;;;;;;7.90;89.00;;;;;;5077726;28;20690;-78
2021/03/29 05:09:17;;;;;;;;;;;7.90;89.70;;;;;;5074358;28;19931;-79
2021/03/29 05:11:49;;;;;;;;;;;7.90;90.00;;;;;;5094673;28;21533;-78
2021/03/29 05:14:15;;;;;;;;;;;7.80;89.40;;;;;;5094943;28;19923;-79
2021/03/29 05:16:41;;;;;;;;;;;7.90;89.80;;;;;;5094857;28;19912;-79
2021/03/29 05:19:07;;;;;;;;;;;7.80;89.90;;;;;;5093565;28;19923;-79
2021/03/29 05:21:35;;;;;;;;;;;7.90;90.00;;;;;;5090869;28;19912;-79
2021/03/29 05:24:02;;;;;;;;;;;7.80;90.40;;;;;;5096964;28;19915;-78
2021/03/29 05:26:28;;;;;;;;;;;7.80;90.40;;;;;;5081689;28;20428;-79
2021/03/29 05:28:56;;;;;;;;;;;7.80;90.50;;;;;;5077283;28;19931;-79
2021/03/29 05:31:21;;;;;;;;;;;7.80;90.80;;;;;;5083704;28;20007;-78
2021/03/29 05:33:50;;;;;;;;;;;7.80;91.10;;;;;;5082374;28;19920;-79
2021/03/29 05:36:16;;;;;;;;;;;7.80;90.90;;;;;;5094556;27;19986;-79
2021/03/29 05:38:42;;;;;;;;;;;7.80;91.50;;;;;;5089590;28;20276;-79
2021/03/29 05:41:10;;;;;;;;;;;7.80;91.00;;;;;;5093791;28;19916;-79
2021/03/29 05:43:39;;;;;;;;;;;7.80;91.00;;;;;;5096088;27;19916;-79
2021/03/29 05:46:04;;;;;;;;;;;7.80;91.60;;;;;;5084484;28;19912;-79
2021/03/29 05:48:30;;;;;;;;;;;7.70;92.40;;;;;;5096123;28;19981;-79
2021/03/29 05:50:59;;;;;;;;;;;7.70;91.80;;;;;;5111419;27;19928;-79
2021/03/29 05:53:24;;;;;;;;;;;7.70;91.80;;;;;;5091502;28;19916;-79
2021/03/29 05:55:52;;;;;;;;;;;7.70;92.40;;;;;;5091636;28;19919;-79
2021/03/29 06:00:52;;;;;;;;;;;7.70;92.50;;;;;;5091421;28;20343;-79
2021/03/29 06:03:19;;;;;;;;;;;7.60;92.20;;;;;;5094348;28;20007;-79
2021/03/29 06:05:45;;;;;;;;;;;7.70;92.40;;;;;;5096489;27;19997;-79
2021/03/29 06:08:13;;;;;;;;;;;7.70;92.90;;;;;;5078915;28;19928;-79
2021/03/29 06:10:44;;;;;;;;;;;7.70;93.40;;;;;;5083016;28;20168;-79
2021/03/29 06:13:33;;;;;;;;;;;7.70;93.20;;;;;;5088026;28;20311;-80
2021/03/29 06:16:06;;;;;;;;;;;7.70;93.20;;;;;;5078331;28;19920;-79
2021/03/29 06:18:31;;;;;;;;;;;7.70;93.80;;;;;;5089720;28;20359;-79
2021/03/29 06:21:01;;;;;;;;;;;7.70;94.20;;;;;;5090997;28;19920;-78
2021/03/29 06:23:27;;;;;;;;;;;7.80;94.50;;;;;;5092230;28;19931;-78
2021/03/29 06:26:07;;;;;;;;;;;7.80;93.30;;;;;;5089032;28;20352;-77
2021/03/29 06:28:32;;;;;;;;;;;7.90;93.70;;;;;;5085561;28;19956;-77
2021/03/29 06:30:58;;;;;;;;;;;7.90;94.80;;;;;;5094100;28;19921;-78
2021/03/29 06:33:24;;;;;;;;;;;7.90;93.40;;;;;;5087075;28;19976;-78
2021/03/29 06:35:53;;;;;;;;;;;8.00;93.80;;;;;;5087539;28;19959;-77
2021/03/29 06:38:28;;;;;;;;;;;8.10;94.20;;;;;;5095268;28;19916;-77
2021/03/29 06:40:58;;;;;;;;;;;8.10;94.30;;;;;;5093104;28;19938;-77
2021/03/29 06:43:32;;;;;;;;;;;8.20;94.10;;;;;;5092921;28;20513;-77
2021/03/29 06:45:59;;;;;;;;;;;8.30;94.30;;;;;;5090327;28;19920;-77
2021/03/29 06:48:31;;;;;;;;;;;8.30;95.40;;;;;;5092206;28;19942;-78
2021/03/29 06:51:10;;;;;;;;;;;8.40;94.80;;;;;;5090120;28;19916;-79
2021/03/29 06:53:38;;;;;;;;;;;8.40;95.90;;;;;;5089336;28;19912;-79
2021/03/29 06:56:19;;;;;;;;;;;8.50;95.90;;;;;;5089067;28;19927;-78
2021/03/29 06:58:45;;;;;;;;;;;8.50;94.40;;;;;;5091003;28;19917;-79
2021/03/29 07:01:14;;;;;;;;;;;8.60;95.20;;;;;;5096087;28;20015;-79
2021/03/29 07:03:42;;;;;;;;;;;8.70;95.80;;;;;;5085680;28;20277;-79
2021/03/29 07:06:07;;;;;;;;;;;8.70;96.80;;;;;;5085806;28;19920;-80
2021/03/29 07:08:33;;;;;;;;;;;8.80;95.60;;;;;;5072738;28;19931;-78
2021/03/29 07:10:59;;;;;;;;;;;8.80;94.90;;;;;;5090246;28;19959;-78
2021/03/29 07:13:25;;;;;;;;;;;8.90;94.00;;;;;;5094688;28;19920;-79
2021/03/29 07:15:50;;;;;;;;;;;8.90;95.00;;;;;;5122180;27;19912;-79
2021/03/29 07:18:18;;;;;;;;;;;9.00;94.40;;;;;;5089811;28;20011;-79
2021/03/29 07:20:44;;;;;;;;;;;9.00;94.10;;;;;;5086045;28;19916;-79
2021/03/29 07:23:14;;;;;;;;;;;9.10;93.90;;;;;;5092359;28;19922;-79
2021/03/29 07:25:40;;;;;;;;;;;9.10;94.80;;;;;;5089402;28;19927;-79
2021/03/29 07:28:09;;;;;;;;;;;9.20;94.60;;;;;;5093480;28;19951;-78
2021/03/29 07:30:44;;;;;;;;;;;9.30;95.00;;;;;;5087750;28;19916;-79
2021/03/29 07:33:10;;;;;;;;;;;9.30;95.20;;;;;;5093782;28;19980;-79
2021/03/29 07:35:43;;;;;;;;;;;9.40;94.00;;;;;;5087510;28;19916;-79
2021/03/29 07:38:09;;;;;;;;;;;9.50;92.40;;;;;;5089702;28;19970;-78
2021/03/29 07:40:36;;;;;;;;;;;9.60;88.70;;;;;;5078582;28;19950;-79
2021/03/29 07:43:14;;;;;;;;;;;9.70;91.30;;;;;;5088554;28;19920;-79
2021/03/29 07:45:41;;;;;;;;;;;9.80;91.40;;;;;;5089811;28;19924;-79
2021/03/29 07:48:09;;;;;;;;;;;9.90;91.90;;;;;;5087958;28;19922;-79
2021/03/29 07:50:34;;;;;;;;;;;10.00;91.00;;;;;;5096263;28;19939;-79
2021/03/29 07:53:03;;;;;;;;;;;10.10;91.40;;;;;;5088552;28;19912;-79
2021/03/29 07:55:29;;;;;;;;;;;10.20;91.00;;;;;;5092037;28;20327;-79
2021/03/29 07:57:55;;;;;;;;;;;10.30;91.90;;;;;;5089299;28;19917;-79
2021/03/29 08:00:26;;;;;;;;;;;10.40;90.80;;;;;;5092135;28;19964;-79
2021/03/29 08:02:52;;;;;;;;;;;10.50;90.60;;;;;;5095818;28;19917;-79
2021/03/29 08:05:36;;;;;;;;;;;10.60;88.70;;;;;;5086578;28;19912;-79
2021/03/29 08:08:08;;;;;;;;;;;10.70;90.70;;;;;;5096905;28;19931;-79
2021/03/29 08:10:52;;;;;;;;;;;10.90;86.70;;;;;;5088775;28;19959;-79
2021/03/29 08:13:36;;;;;;;;;;;11.00;81.60;;;;;;5093007;28;19912;-79
2021/03/29 08:16:02;;;;;;;;;;;11.20;80.40;;;;;;5087744;28;19916;-79
2021/03/29 08:18:28;;;;;;;;;;;11.40;79.60;;;;;;5091925;28;19912;-79
2021/03/29 08:20:54;;;;;;;;;;;11.60;78.10;;;;;;5091894;28;19916;-79
2021/03/29 08:23:33;;;;;;;;;;;11.70;76.70;;;;;;5089844;28;19927;-79
2021/03/29 08:26:25;;;;;;;;;;;11.80;79.00;;;;;;5094288;28;19920;-79
2021/03/29 08:29:10;;;;;;;;;;;12.00;77.20;;;;;;5087484;28;20014;-79
2021/03/29 08:31:54;;;;;;;;;;;12.20;79.50;;;;;;5092954;28;19931;-79
2021/03/29 08:34:19;;;;;;;;;;;12.50;73.80;;;;;;5091884;28;19912;-79
2021/03/29 08:36:45;;;;;;;;;;;12.60;72.50;;;;;;5088637;28;20349;-79
2021/03/29 08:39:11;;;;;;;;;;;12.90;73.90;;;;;;5105445;27;20000;-79
2021/03/29 08:41:36;;;;;;;;;;;13.00;73.90;;;;;;5091141;28;19919;-79
2021/03/29 08:44:03;;;;;;;;;;;13.10;73.00;;;;;;5103724;27;19919;-79
2021/03/29 08:46:32;;;;;;;;;;;13.30;72.50;;;;;;5087032;28;20260;-79
2021/03/29 08:48:58;;;;;;;;;;;13.40;74.90;;;;;;5087560;28;19942;-79
2021/03/29 08:51:23;;;;;;;;;;;13.60;75.20;;;;;;5089511;28;20590;-79
2021/03/29 08:54:05;;;;;;;;;;;13.80;73.00;;;;;;5074434;28;20003;-79
2021/03/29 08:56:40;;;;;;;;;;;14.00;70.40;;;;;;5089709;28;19912;-77
2021/03/29 08:59:08;;;;;;;;;;;14.10;70.60;;;;;;5092900;28;20396;-79
2021/03/29 09:01:34;;;;;;;;;;;14.20;69.90;;;;;;5089789;28;19963;-80
2021/03/29 09:04:02;;;;;;;;;;;14.30;67.50;;;;;;5089979;28;19955;-80
2021/03/29 09:06:31;;;;;;;;;;;14.40;71.10;;;;;;5092333;28;20264;-80
2021/03/29 09:08:58;;;;;;;;;;;14.50;68.20;;;;;;5090293;28;20018;-79
2021/03/29 09:11:23;;;;;;;;;;;14.60;69.50;;;;;;5092431;28;19912;-80
2021/03/29 09:13:52;;;;;;;;;;;14.60;70.70;;;;;;5093593;28;19919;-79
2021/03/29 09:16:21;;;;;;;;;;;14.80;70.20;;;;;;5076061;28;19912;-80
2021/03/29 09:18:49;;;;;;;;;;;14.90;68.00;;;;;;5091719;28;19920;-79
2021/03/29 09:21:22;;;;;;;;;;;15.00;70.90;;;;;;5077094;28;19969;-80
2021/03/29 09:23:48;;;;;;;;;;;15.10;69.80;;;;;;5087638;28;19938;-80
2021/03/29 09:26:13;;;;;;;;;;;15.20;67.80;;;;;;5076712;28;20341;-80
2021/03/29 09:28:45;;;;;;;;;;;15.30;68.90;;;;;;5091465;28;20504;-80
2021/03/29 09:31:10;;;;;;;;;;;15.40;67.50;;;;;;5089953;28;19931;-80
2021/03/29 09:33:38;;;;;;;;;;;15.60;68.50;;;;;;5090209;28;19916;-80
2021/03/29 09:36:11;;;;;;;;;;;15.80;67.00;;;;;;5082557;28;19916;-79
2021/03/29 09:38:39;;;;;;;;;;;15.70;65.60;;;;;;5090902;28;19916;-79
2021/03/29 09:41:28;;;;;;;;;;;15.80;67.00;;;;;;5124175;27;20369;-79
2021/03/29 09:43:54;;;;;;;;;;;15.90;67.90;;;;;;5089668;28;19912;-77
2021/03/29 09:46:29;;;;;;;;;;;16.00;64.90;;;;;;5088847;28;20405;-79
2021/03/29 09:49:07;;;;;;;;;;;16.10;65.50;;;;;;5096181;28;19924;-77
2021/03/29 09:51:33;;;;;;;;;;;16.10;64.50;;;;;;5093134;28;20280;-80
2021/03/29 09:54:11;;;;;;;;;;;16.10;63.70;;;;;;5093800;28;20030;-79
2021/03/29 09:56:38;;;;;;;;;;;16.20;66.20;;;;;;5091105;28;20357;-79
2021/03/29 09:59:06;;;;;;;;;;;16.20;64.10;;;;;;5109280;27;19951;-79
2021/03/29 10:01:32;;;;;;;;;;;16.10;61.00;;;;;;5091183;28;19931;-79
2021/03/29 10:03:58;;;;;;;;;;;16.20;62.50;;;;;;5093121;28;19912;-76
2021/03/29 10:06:26;;;;;;;;;;;16.30;62.70;;;;;;5074679;28;19943;-81
2021/03/29 10:08:56;;;;;;;;;;;16.40;62.70;;;;;;5090023;28;19920;-76
2021/03/29 10:11:22;;;;;;;;;;;16.40;62.40;;;;;;5093954;28;19941;-79
2021/03/29 10:13:48;;;;;;;;;;;16.50;63.80;;;;;;5090990;28;19921;-79
2021/03/29 10:16:18;;;;;;;;;;;16.50;60.90;;;;;;5129437;27;19920;-79
2021/03/29 10:18:43;;;;;;;;;;;16.50;61.30;;;;;;5091449;28;20461;-79
2021/03/29 10:21:09;;;;;;;;;;;16.50;61.40;;;;;;5090117;28;19912;-79
2021/03/29 10:23:40;;;;;;;;;;;16.60;64.30;;;;;;5087070;28;19943;-79
2021/03/29 10:26:19;;;;;;;;;;;16.50;62.30;;;;;;5091251;28;20003;-79
2021/03/29 10:28:51;;;;;;;;;;;16.60;63.40;;;;;;5090050;28;20027;-79
2021/03/29 10:31:17;;;;;;;;;;;16.70;60.60;;;;;;5090304;28;19920;-79
2021/03/29 10:33:42;;;;;;;;;;;16.80;62.00;;;;;;5088524;28;19912;-79
2021/03/29 10:36:12;;;;;;;;;;;16.90;64.50;;;;;;5091078;28;20027;-79
2021/03/29 10:38:37;;;;;;;;;;;16.90;62.80;;;;;;5092041;28;19916;-79
2021/03/29 10:41:03;;;;;;;;;;;17.00;61.00;;;;;;5091682;28;20243;-78
2021/03/29 10:43:31;;;;;;;;;;;17.00;63.50;;;;;;5090490;28;20605;-79
2021/03/29 10:45:58;;;;;;;;;;;17.10;60.60;;;;;;5091690;28;19920;-79
2021/03/29 10:48:24;;;;;;;;;;;17.10;62.30;;;;;;5093602;28;19931;-78
2021/03/29 10:50:49;;;;;;;;;;;17.20;58.50;;;;;;5092259;28;19979;-78
2021/03/29 10:53:17;;;;;;;;;;;17.30;60.60;;;;;;5092216;28;19939;-79
2021/03/29 10:55:45;;;;;;;;;;;17.40;60.90;;;;;;5095350;28;20410;-79
2021/03/29 10:58:11;;;;;;;;;;;17.50;61.10;;;;;;5090292;28;19939;-79
2021/03/29 11:00:38;;;;;;;;;;;17.60;61.10;;;;;;5091915;28;19947;-79
2021/03/29 11:03:04;;;;;;;;;;;17.70;61.60;;;;;;5089252;28;20409;-79
2021/03/29 11:05:30;;;;;;;;;;;17.80;59.60;;;;;;5092677;28;20010;-77
2021/03/29 11:07:57;;;;;;;;;;;17.90;57.10;;;;;;5089989;28;19976;-78
2021/03/29 11:10:23;;;;;;;;;;;18.00;58.40;;;;;;5093967;28;19968;-78
2021/03/29 11:12:48;;;;;;;;;;;18.00;57.80;;;;;;5095321;28;19920;-78
2021/03/29 11:15:14;;;;;;;;;;;18.00;55.80;;;;;;5090476;28;19940;-78
2021/03/29 11:17:40;;;;;;;;;;;18.10;56.90;;;;;;5091733;28;19911;-83
2021/03/29 11:20:06;;;;;;;;;;;18.30;59.90;;;;;;5089559;28;19931;-82
2021/03/29 11:22:31;;;;;;;;;;;18.40;59.90;;;;;;5089944;28;19985;-77
2021/03/29 11:24:57;;;;;;;;;;;18.60;58.70;;;;;;5090276;28;20328;-79
2021/03/29 11:27:25;;;;;;;;;;;18.80;58.20;;;;;;5094995;27;20353;-79
2021/03/29 11:29:55;;;;;;;;;;;18.90;58.10;;;;;;5089661;28;19924;-80
2021/03/29 11:32:25;;;;;;;;;;;19.00;54.80;;;;;;5090371;28;19922;-79
2021/03/29 11:34:50;;;;;;;;;;;19.10;59.90;;;;;;5092345;28;19919;-80
2021/03/29 11:37:16;;;;;;;;;;;19.20;54.50;;;;;;5088756;28;19912;-78
2021/03/29 11:39:41;;;;;;;;;;;19.30;57.50;;;;;;5090399;28;20502;-77
2021/03/29 11:42:07;;;;;;;;;;;19.40;52.20;;;;;;5089860;28;20303;-77
2021/03/29 11:44:35;;;;;;;;;;;19.40;54.00;;;;;;5089319;28;19919;-78
2021/03/29 11:47:03;;;;;;;;;;;19.60;57.50;;;;;;5087450;28;19983;-78
2021/03/29 11:49:30;;;;;;;;;;;19.70;53.70;;;;;;5086288;28;19985;-78
2021/03/29 11:51:58;;;;;;;;;;;19.70;54.40;;;;;;5085171;28;19912;-78
2021/03/29 11:54:24;;;;;;;;;;;19.90;56.80;;;;;;5089517;28;19919;-78
2021/03/29 11:56:50;;;;;;;;;;;20.10;56.60;;;;;;5088321;28;19948;-77
2021/03/29 11:59:18;;;;;;;;;;;20.20;54.70;;;;;;5087816;28;20330;-78
2021/03/29 12:01:47;;;;;;;;;;;20.20;53.30;;;;;;5082014;28;19920;-78
2021/03/29 12:04:19;;;;;;;;;;;20.30;51.80;;;;;;5084377;28;20069;-78
2021/03/29 12:07:05;;;;;;;;;;;20.30;51.20;;;;;;5088290;28;20021;-77
2021/03/29 12:09:42;;;;;;;;;;;20.40;50.90;;;;;;5090971;28;19924;-77
2021/03/29 12:12:08;;;;;;;;;;;20.50;50.80;;;;;;5090167;28;20362;-77
2021/03/29 12:14:37;;;;;;;;;;;20.60;52.00;;;;;;5088328;28;19912;-77
2021/03/29 12:17:03;;;;;;;;;;;20.70;52.00;;;;;;5091573;28;19912;-78
2021/03/29 12:19:29;;;;;;;;;;;20.90;52.10;;;;;;5091218;28;19919;-78
2021/03/29 12:22:00;;;;;;;;;;;21.00;52.20;;;;;;5105553;27;19923;-78
2021/03/29 12:24:30;;;;;;;;;;;20.90;52.80;;;;;;5086205;28;19920;-82
2021/03/29 12:27:08;;;;;;;;;;;21.00;51.90;;;;;;5090484;28;20246;-77
2021/03/29 12:29:43;;;;;;;;;;;21.10;52.40;;;;;;5086359;28;19970;-78
2021/03/29 12:32:14;;;;;;;;;;;21.10;49.90;;;;;;5092428;28;19957;-79
2021/03/29 12:34:46;;;;;;;;;;;21.20;53.50;;;;;;5088422;28;19931;-78
2021/03/29 12:37:15;;;;;;;;;;;21.30;52.80;;;;;;5094235;28;20260;-78
2021/03/29 12:39:45;;;;;;;;;;;21.50;51.00;;;;;;5073914;28;19931;-79
2021/03/29 12:42:15;;;;;;;;;;;21.60;52.90;;;;;;5087632;28;19916;-78
2021/03/29 12:44:43;;;;;;;;;;;21.80;50.70;;;;;;5091051;28;19923;-78
2021/03/29 12:47:15;;;;;;;;;;;21.90;51.20;;;;;;5087538;28;19920;-75
2021/03/29 12:49:43;;;;;;;;;;;22.00;49.20;;;;;;5092648;28;20849;-80
2021/03/29 12:52:08;;;;;;;;;;;22.20;49.50;;;;;;5089658;28;20536;-80
2021/03/29 12:54:35;;;;;;;;;;;22.50;52.70;;;;;;5085573;28;19923;-80
2021/03/29 12:57:00;;;;;;;;;;;22.80;50.30;;;;;;5091848;28;19923;-80
2021/03/29 12:59:28;;;;;;;;;;;22.80;49.20;;;;;;5090204;28;19919;-80
2021/03/29 13:01:55;;;;;;;;;;;23.00;46.90;;;;;;5093731;28;19927;-80
2021/03/29 13:04:40;;;;;;;;;;;23.10;46.80;;;;;;5089909;28;19937;-80
2021/03/29 13:09:45;;;;;;;;;;;23.10;46.10;;;;;;5091237;28;19931;-80
2021/03/29 13:12:10;;;;;;;;;;;23.20;48.20;;;;;;5091840;28;19911;-80
2021/03/29 13:14:47;;;;;;;;;;;23.30;48.90;;;;;;5075706;28;20360;-80
2021/03/29 13:17:13;;;;;;;;;;;23.30;45.90;;;;;;5086437;28;19927;-80
2021/03/29 13:19:38;;;;;;;;;;;23.50;47.50;;;;;;5086286;28;21924;-80
2021/03/29 13:22:04;;;;;;;;;;;23.60;45.00;;;;;;5091941;28;19912;-80
2021/03/29 13:24:29;;;;;;;;;;;23.70;45.40;;;;;;5106723;27;19930;-80
2021/03/29 13:26:57;;;;;;;;;;;23.70;45.60;;;;;;5125103;27;19974;-80
2021/03/29 13:29:25;;;;;;;;;;;23.70;48.80;;;;;;5090379;28;20003;-79
2021/03/29 13:31:52;;;;;;;;;;;23.60;42.40;;;;;;5099362;28;20500;-80
2021/03/29 13:34:20;;;;;;;;;;;23.60;43.70;;;;;;5095180;28;20021;-80
2021/03/29 13:36:46;;;;;;;;;;;23.80;46.20;;;;;;5093718;28;19916;-80
2021/03/29 13:39:16;;;;;;;;;;;23.70;44.70;;;;;;5095976;28;20092;-80
2021/03/29 13:41:41;;;;;;;;;;;23.80;47.90;;;;;;5079030;28;19912;-80
2021/03/29 13:44:07;;;;;;;;;;;23.90;51.50;;;;;;5091638;28;19941;-80
2021/03/29 13:46:38;;;;;;;;;;;24.10;45.80;;;;;;5089805;28;19938;-80
2021/03/29 13:49:06;;;;;;;;;;;24.10;44.60;;;;;;5089954;28;19935;-80
2021/03/29 13:51:33;;;;;;;;;;;24.10;41.80;;;;;;5093467;28;20367;-80
2021/03/29 13:54:07;;;;;;;;;;;23.90;44.90;;;;;;5091198;28;20388;-80
2021/03/29 13:56:32;;;;;;;;;;;24.00;42.00;;;;;;5096190;28;19920;-80
2021/03/29 13:59:01;;;;;;;;;;;23.80;41.50;;;;;;5096019;28;19920;-80
2021/03/29 14:01:29;;;;;;;;;;;23.80;42.10;;;;;;5090802;28;19912;-79
2021/03/29 14:03:54;;;;;;;;;;;23.60;43.50;;;;;;5098471;28;19920;-80
2021/03/29 14:06:20;;;;;;;;;;;23.70;43.60;;;;;;5092143;28;20018;-80
2021/03/29 14:08:48;;;;;;;;;;;23.70;45.90;;;;;;5089035;28;19970;-79
2021/03/29 14:11:18;;;;;;;;;;;23.50;41.50;;;;;;5092552;28;19924;-79
2021/03/29 14:13:43;;;;;;;;;;;23.40;42.00;;;;;;5093527;28;19960;-79
2021/03/29 14:16:09;;;;;;;;;;;23.40;46.00;;;;;;5093412;28;19959;-80
2021/03/29 14:18:37;;;;;;;;;;;23.40;47.30;;;;;;5090467;28;19912;-81
2021/03/29 14:21:15;;;;;;;;;;;23.30;43.90;;;;;;5087810;28;20335;-79
2021/03/29 14:23:41;;;;;;;;;;;23.20;39.80;;;;;;5095516;28;19985;-80
2021/03/29 14:26:08;;;;;;;;;;;23.10;42.90;;;;;;5093630;28;20357;-79
2021/03/29 14:28:33;;;;;;;;;;;23.10;44.00;;;;;;5092354;28;19925;-79
2021/03/29 14:31:02;;;;;;;;;;;23.10;43.50;;;;;;5092081;28;19912;-79
2021/03/29 14:33:28;;;;;;;;;;;22.90;43.80;;;;;;5093659;28;19916;-79
2021/03/29 14:42:02;;;;;;;;;;;22.80;45.10;;;;;;5073314;28;20002;-79